Daily Tabular Data
[Select Refresh to Update]


4/15/18
Time         Wind Dir   Wind Spd  Wind Gust     Hum In   Humidity    Temp In       Temp  Raw Barom   Tot Rain Wind Chill Heat Ix In Heat Index  Dew Point  DailyRain   HourRain   RainRate
                            mph        mph          %          %         F         F         in         in         F         F         F         F         in         in      in/hr
12:00am            69          0          1         22         29       75.6       62.0      29.24       4.41       62.0       74.3       61.1       29.4       0.00       0.00      0.000
12:30am            73          0          3         22         46       75.6       65.5      29.23       4.41       65.5       74.3       65.9       44.2       0.00       0.00      0.000
1:00am             73          0          2         22         25       75.4       62.2      29.23       4.41       62.2       74.1       61.1       26.0       0.00       0.00      0.000
1:30am             74          1          2         22         26       75.4       60.6      29.22       4.41       60.6       74.1       59.5       25.6       0.00       0.00      0.000
2:00am             82          1          3         22         25       75.2       60.3      29.20       4.41       60.3       73.9       59.2       24.4       0.00       0.00      0.000
2:30am             94          2          5         21         23       75.0       60.6      29.19       4.41       60.6       73.6       59.4       22.6       0.00       0.00      0.000
3:00am             94          1          4         20         25       74.9       59.7      29.18       4.41       59.7       73.5       58.6       23.8       0.00       0.00      0.000
3:30am            103          0          1         21         28       74.7       57.8      29.17       4.41       57.8       73.3       56.9       24.9       0.00       0.00      0.000
4:00am             89          1          2         21         23       74.4       58.6      29.16       4.41       58.6       73.0       57.4       20.9       0.00       0.00      0.000
4:30am             89          1          1         21         25       74.2       58.8      29.16       4.41       58.8       72.8       57.7       23.1       0.00       0.00      0.000
5:00am             85          1          2         20         27       74.0       57.9      29.15       4.41       57.9       72.6       56.9       24.1       0.00       0.00      0.000
5:30am             82          0          2         22         26       73.6       58.5      29.15       4.41       58.5       72.3       57.4       23.8       0.00       0.00      0.000
6:00am             96          3          3         21         26       73.4       58.1      29.15       4.41       58.1       72.0       57.0       23.4       0.00       0.00      0.000
6:30am             75          2          4         22         25       73.3       58.6      29.14       4.41       58.6       72.0       57.5       22.9       0.00       0.00      0.000
7:00am             78          2          3         21         25       73.2       60.2      29.14       4.41       60.2       71.8       59.1       24.3       0.00       0.00      0.000
7:30am            310          0          6         22         30       73.1       60.0      29.14       4.41       60.0       71.8       59.2       28.5       0.00       0.00      0.000
8:00am            261          0          5         23         32       73.0       59.9      29.16       4.41       59.9       71.8       59.2       30.0       0.00       0.00      0.000
8:30am            294          0          1         22         28       73.2       61.8      29.17       4.41       61.8       71.9       60.9       28.4       0.00       0.00      0.000
9:00am            281          0          1         22         25       73.4       64.3      29.17       4.41       64.3       72.1       63.2       27.8       0.00       0.00      0.000
9:30am            288          0          1         22         28       73.5       66.8      29.16       4.41       66.8       72.2       65.9       32.7       0.00       0.00      0.000
10:00am           222          0          2         22         25       73.6       71.8      29.15       4.41       71.8       72.3       70.7       34.1       0.00       0.00      0.000
10:30am           261          0          4         24         23       73.5       73.0      29.15       4.41       73.0       72.3       71.8       33.0       0.00       0.00      0.000
11:00am           257          1          4         23         19       73.8       76.7      29.15       4.41       76.7       72.6       75.2       31.4       0.00       0.00      0.000
11:30am           242          2          5         23         23       74.0       75.9      29.16       4.41       75.9       72.8       74.7       35.5       0.00       0.00      0.000
12:00pm           159          5         10         22         18       74.2       80.0      29.15       4.41       80.0       72.9       78.5       32.7       0.00       0.00      0.000
12:30pm           271          2         11         22         19       74.5       79.7      29.14       4.41       79.7       73.2       78.2       33.8       0.00       0.00      0.000
1:00pm            119          1         11         22         21       74.8       78.9      29.14       4.41       78.9       73.5       77.5       35.7       0.00       0.00      0.000
1:30pm            124          5         12         22         20       75.4       77.7      29.13       4.41       77.7       74.1       76.3       33.5       0.00       0.00      0.000
2:00pm            118          1         11         22         14       75.7       79.8      29.11       4.41       79.8       74.4       78.1       26.4       0.00       0.00      0.000
2:30pm            120          7         11         22         16       76.0       81.8      29.10       4.41       81.8       74.7       79.6       31.3       0.00       0.00      0.000
3:00pm            241          2          9         22         16       76.3       80.7      29.10       4.41       80.7       75.0       78.8       30.4       0.00       0.00      0.000
3:30pm            151          9         14         21         17       76.5       80.0      29.09       4.41       80.0       75.1       78.4       31.3       0.00       0.00      0.000
4:00pm            229          0         14         21         16       76.7       79.3      29.09       4.41       79.3       75.3       77.7       29.3       0.00       0.00      0.000
4:30pm            122          4          9         21         16       76.6       79.0      29.08       4.41       79.0       75.2       77.4       29.0       0.00       0.00      0.000
5:00pm            296          5          9         24         32       76.8       74.0      29.07       4.41       74.0       75.6       73.3       42.3       0.00       0.00      0.000
5:30pm            290          3          9         27         35       76.4       70.6      29.07       4.41       70.6       75.4       70.1       41.6       0.00       0.00      0.000
6:00pm            254          1         10         30         39       75.2       69.3      29.08       4.41       69.3       74.4       69.1       43.3       0.00       0.00      0.000
6:30pm            259          0         11         31         43       73.8       67.1      29.08       4.41       67.1       73.1       67.3       43.9       0.00       0.00      0.000
7:00pm            263          0          5         32         45       73.8       67.1      29.07       4.41       67.1       73.1       67.4       45.1       0.00       0.00      0.000
7:30pm            260          0          9         32         62       74.5       62.9      29.08       4.41       62.9       73.8       64.9       49.7       0.00       0.00      0.000
8:00pm            290          4          7         32         56       75.3       61.6      29.09       4.41       61.6       74.6       63.0       45.8       0.00       0.00      0.000
8:30pm            262          3          4         32         58       75.5       61.6      29.10       4.41       61.6       74.8       63.2       46.7       0.00       0.00      0.000
9:00pm            263          0          4         32         57       75.6       61.7      29.10       4.41       61.7       74.9       63.2       46.3       0.00       0.00      0.000
9:30pm            250          0          1         32         59       75.7       60.8      29.11       4.41       60.8       75.0       62.5       46.4       0.00       0.00      0.000
10:00pm           232          0          0         32         66       75.6       61.1      29.10       4.41       61.1       74.9       63.6       49.7       0.00       0.00      0.000
10:30pm           263          2          4         32         70       75.5       59.1      29.10       4.41       59.1       74.8       62.1       49.3       0.00       0.00      0.000
11:00pm           272          1          4         33         85       75.5       56.8      29.09       4.41       56.8       74.9       61.7       52.3       0.00       0.00      0.000
11:30pm           242          0          1         33         85       75.3       56.9      29.10       4.41       56.9       74.7       61.8       52.4       0.00       0.00      0.000